sensor_id;sensor_type;location;lat;lon;timestamp;pressure;altitude;pressure_sealevel;temperature;humidity
61324;BME280;47203;48.428;11.974;2024-03-02T00:00:32;95790.69;;;11.90;54.37
61324;BME280;47203;48.428;11.974;2024-03-02T00:02:41;95793.91;;;11.86;54.53
61324;BME280;47203;48.428;11.974;2024-03-02T00:04:44;95789.91;;;11.89;54.40
61324;BME280;47203;48.428;11.974;2024-03-02T00:06:51;95797.06;;;11.88;54.56
61324;BME280;47203;48.428;11.974;2024-03-02T00:08:58;95792.84;;;11.87;54.48
61324;BME280;47203;48.428;11.974;2024-03-02T00:11:02;95792.25;;;11.91;54.47
61324;BME280;47203;48.428;11.974;2024-03-02T00:13:06;95790.91;;;11.93;54.36
61324;BME280;47203;48.428;11.974;2024-03-02T00:15:43;95790.69;;;11.90;54.51
61324;BME280;47203;48.428;11.974;2024-03-02T00:17:54;95793.03;;;11.91;54.55
61324;BME280;47203;48.428;11.974;2024-03-02T00:19:58;95792.47;;;11.94;54.63
61324;BME280;47203;48.428;11.974;2024-03-02T00:22:02;95788.00;;;11.95;54.48
61324;BME280;47203;48.428;11.974;2024-03-02T00:24:19;95782.72;;;11.95;54.52
61324;BME280;47203;48.428;11.974;2024-03-02T00:26:24;95790.34;;;11.96;54.45
61324;BME280;47203;48.428;11.974;2024-03-02T00:28:29;95781.63;;;11.96;54.47
61324;BME280;47203;48.428;11.974;2024-03-02T00:30:57;95781.16;;;11.94;54.45
61324;BME280;47203;48.428;11.974;2024-03-02T00:33:06;95774.50;;;11.96;54.26
61324;BME280;47203;48.428;11.974;2024-03-02T00:35:10;95781.34;;;11.97;54.33
61324;BME280;47203;48.428;11.974;2024-03-02T00:37:14;95778.72;;;11.97;54.32
61324;BME280;47203;48.428;11.974;2024-03-02T00:39:18;95782.41;;;11.96;54.39
61324;BME280;47203;48.428;11.974;2024-03-02T00:41:25;95778.97;;;11.96;54.46
61324;BME280;47203;48.428;11.974;2024-03-02T00:43:43;95778.78;;;11.92;54.60
61324;BME280;47203;48.428;11.974;2024-03-02T00:45:49;95772.47;;;11.93;54.59
61324;BME280;47203;48.428;11.974;2024-03-02T00:47:53;95772.47;;;11.93;54.46
61324;BME280;47203;48.428;11.974;2024-03-02T00:49:57;95768.22;;;11.92;54.63
61324;BME280;47203;48.428;11.974;2024-03-02T00:52:01;95766.91;;;11.95;54.54
61324;BME280;47203;48.428;11.974;2024-03-02T00:54:07;95766.91;;;11.95;54.44
61324;BME280;47203;48.428;11.974;2024-03-02T00:56:11;95766.09;;;11.94;54.42
61324;BME280;47203;48.428;11.974;2024-03-02T00:58:14;95765.31;;;11.94;54.37
61324;BME280;47203;48.428;11.974;2024-03-02T01:00:18;95766.09;;;11.94;54.56
61324;BME280;47203;48.428;11.974;2024-03-02T01:02:21;95768.72;;;11.94;54.43
61324;BME280;47203;48.428;11.974;2024-03-02T01:04:25;95768.22;;;11.92;54.63
61324;BME280;47203;48.428;11.974;2024-03-02T01:06:30;95764.31;;;11.90;54.48
61324;BME280;47203;48.428;11.974;2024-03-02T01:08:35;95762.47;;;11.90;54.52
61324;BME280;47203;48.428;11.974;2024-03-02T01:10:37;95754.88;;;11.88;54.50
61324;BME280;47203;48.428;11.974;2024-03-02T01:12:41;95761.69;;;11.90;54.68
61324;BME280;47203;48.428;11.974;2024-03-02T01:14:44;95746.16;;;11.88;54.64
61324;BME280;47203;48.428;11.974;2024-03-02T01:16:47;95759.03;;;11.90;54.56
61324;BME280;47203;48.428;11.974;2024-03-02T01:18:51;95747.44;;;11.91;54.50
61324;BME280;47203;48.428;11.974;2024-03-02T01:20:54;95741.38;;;11.90;54.51
61324;BME280;47203;48.428;11.974;2024-03-02T01:22:59;95745.09;;;11.89;54.64
61324;BME280;47203;48.428;11.974;2024-03-02T01:25:03;95745.84;;;11.90;54.52
61324;BME280;47203;48.428;11.974;2024-03-02T01:27:06;95750.38;;;11.89;54.58
61324;BME280;47203;48.428;11.974;2024-03-02T01:29:09;95746.97;;;11.88;54.67
61324;BME280;47203;48.428;11.974;2024-03-02T01:31:13;95742.94;;;11.91;54.52
61324;BME280;47203;48.428;11.974;2024-03-02T01:33:17;95741.09;;;11.92;54.66
61324;BME280;47203;48.428;11.974;2024-03-02T01:35:20;95742.38;;;11.94;54.51
61324;BME280;47203;48.428;11.974;2024-03-02T01:37:23;95743.16;;;11.95;54.49
61324;BME280;47203;48.428;11.974;2024-03-02T01:39:27;95747.63;;;11.94;54.44
61324;BME280;47203;48.428;11.974;2024-03-02T01:41:30;95741.28;;;11.95;54.46
61324;BME280;47203;48.428;11.974;2024-03-02T01:43:33;95740.81;;;11.93;54.42
61324;BME280;47203;48.428;11.974;2024-03-02T01:45:41;95747.63;;;11.94;54.49
61324;BME280;47203;48.428;11.974;2024-03-02T01:47:44;95751.06;;;11.95;54.55
61324;BME280;47203;48.428;11.974;2024-03-02T01:49:48;95749.72;;;11.97;54.50
61324;BME280;47203;48.428;11.974;2024-03-02T01:51:52;95753.13;;;11.98;54.32
61324;BME280;47203;48.428;11.974;2024-03-02T01:53:56;95747.25;;;12.01;54.42
61324;BME280;47203;48.428;11.974;2024-03-02T01:56:00;95755.44;;;11.99;54.30
61324;BME280;47203;48.428;11.974;2024-03-02T01:58:04;95755.94;;;12.01;54.19
61324;BME280;47203;48.428;11.974;2024-03-02T02:00:10;95764.94;;;12.00;54.29
61324;BME280;47203;48.428;11.974;2024-03-02T02:02:13;95755.16;;;12.01;54.37
61324;BME280;47203;48.428;11.974;2024-03-02T02:04:17;95762.78;;;12.02;54.29
61324;BME280;47203;48.428;11.974;2024-03-02T02:06:20;95749.88;;;12.01;54.41
61324;BME280;47203;48.428;11.974;2024-03-02T02:08:25;95757.78;;;12.01;54.41
61324;BME280;47203;48.428;11.974;2024-03-02T02:10:28;95755.94;;;12.01;54.33
61324;BME280;47203;48.428;11.974;2024-03-02T02:12:32;95755.16;;;12.01;54.38
61324;BME280;47203;48.428;11.974;2024-03-02T02:14:36;95760.91;;;12.03;54.31
61324;BME280;47203;48.428;11.974;2024-03-02T02:16:41;95753.00;;;12.03;54.41
61324;BME280;47203;48.428;11.974;2024-03-02T02:18:44;95756.44;;;12.03;54.51
61324;BME280;47203;48.428;11.974;2024-03-02T02:20:46;95757.97;;;12.04;54.47
61324;BME280;47203;48.428;11.974;2024-03-02T02:22:58;95754.09;;;12.02;54.29
61324;BME280;47203;48.428;11.974;2024-03-02T02:25:02;95750.34;;;12.03;54.37
61324;BME280;47203;48.428;11.974;2024-03-02T02:27:06;95741.66;;;12.02;54.52
61324;BME280;47203;48.428;11.974;2024-03-02T02:29:09;95736.69;;;12.01;54.43
61324;BME280;47203;48.428;11.974;2024-03-02T02:31:13;95740.69;;;11.98;54.39
61324;BME280;47203;48.428;11.974;2024-03-02T02:33:18;95734.66;;;11.98;54.37
61324;BME280;47203;48.428;11.974;2024-03-02T02:35:22;95734.66;;;11.98;54.37
61324;BME280;47203;48.428;11.974;2024-03-02T02:37:26;95734.16;;;11.96;54.35
61324;BME280;47203;48.428;11.974;2024-03-02T02:39:30;95729.97;;;11.95;54.46
61324;BME280;47203;48.428;11.974;2024-03-02T02:41:33;95728.88;;;11.96;54.34
61324;BME280;47203;48.428;11.974;2024-03-02T02:43:37;95734.16;;;11.96;54.53
61324;BME280;47203;48.428;11.974;2024-03-02T02:45:41;95736.53;;;11.97;54.21
61324;BME280;47203;48.428;11.974;2024-03-02T02:47:45;95728.88;;;11.96;54.35
61324;BME280;47203;48.428;11.974;2024-03-02T02:49:48;95719.13;;;11.96;54.45
61324;BME280;47203;48.428;11.974;2024-03-02T02:51:52;95722.06;;;11.95;54.37
61324;BME280;47203;48.428;11.974;2024-03-02T02:53:55;95717.84;;;11.94;54.49
61324;BME280;47203;48.428;11.974;2024-03-02T02:56:00;95719.50;;;11.90;54.45
61324;BME280;47203;48.428;11.974;2024-03-02T02:58:04;95717.16;;;11.88;54.52
61324;BME280;47203;48.428;11.974;2024-03-02T03:00:10;95713.25;;;11.85;54.46
61324;BME280;47203;48.428;11.974;2024-03-02T03:02:16;95703.78;;;11.84;54.54
61324;BME280;47203;48.428;11.974;2024-03-02T03:04:19;95706.72;;;11.83;54.49
61324;BME280;47203;48.428;11.974;2024-03-02T03:06:22;95714.66;;;11.83;54.52
61324;BME280;47203;48.428;11.974;2024-03-02T03:08:24;95709.38;;;11.83;54.64
61324;BME280;47203;48.428;11.974;2024-03-02T03:10:27;95707.81;;;11.82;54.40
61324;BME280;47203;48.428;11.974;2024-03-02T03:12:33;95713.06;;;11.82;54.52
61324;BME280;47203;48.428;11.974;2024-03-02T03:14:36;95713.84;;;11.82;54.36
61324;BME280;47203;48.428;11.974;2024-03-02T03:16:39;95717.28;;;11.83;54.27
61324;BME280;47203;48.428;11.974;2024-03-02T03:18:43;95718.03;;;11.83;54.49
61324;BME280;47203;48.428;11.974;2024-03-02T03:20:46;95724.09;;;11.84;54.34
61324;BME280;47203;48.428;11.974;2024-03-02T03:22:50;95724.09;;;11.84;54.36
61324;BME280;47203;48.428;11.974;2024-03-02T03:24:54;95718.53;;;11.85;54.21
61324;BME280;47203;48.428;11.974;2024-03-02T03:26:57;95723.03;;;11.85;54.36
61324;BME280;47203;48.428;11.974;2024-03-02T03:29:02;95728.28;;;11.85;54.34
61324;BME280;47203;48.428;11.974;2024-03-02T03:31:05;95730.94;;;11.85;54.26
61324;BME280;47203;48.428;11.974;2024-03-02T03:33:09;95721.97;;;11.86;54.46
61324;BME280;47203;48.428;11.974;2024-03-02T03:35:12;95723.50;;;11.87;54.27
61324;BME280;47203;48.428;11.974;2024-03-02T03:37:17;95728.00;;;11.86;54.26
61324;BME280;47203;48.428;11.974;2024-03-02T03:39:20;95723.78;;;11.85;54.39
61324;BME280;47203;48.428;11.974;2024-03-02T03:41:24;95734.34;;;11.85;54.19
61324;BME280;47203;48.428;11.974;2024-03-02T03:43:27;95736.22;;;11.85;54.24
61324;BME280;47203;48.428;11.974;2024-03-02T03:45:32;95733.88;;;11.83;54.31
61324;BME280;47203;48.428;11.974;2024-03-02T03:47:36;95739.13;;;11.83;54.34
61324;BME280;47203;48.428;11.974;2024-03-02T03:49:40;95737.09;;;11.80;54.15
61324;BME280;47203;48.428;11.974;2024-03-02T03:51:43;95737.09;;;11.80;54.41
61324;BME280;47203;48.428;11.974;2024-03-02T03:53:47;95745.78;;;11.81;54.13
61324;BME280;47203;48.428;11.974;2024-03-02T03:55:50;95740.03;;;11.79;54.16
61324;BME280;47203;48.428;11.974;2024-03-02T03:57:54;95743.13;;;11.81;54.29
61324;BME280;47203;48.428;11.974;2024-03-02T03:59:57;95750.28;;;11.80;54.15
61324;BME280;47203;48.428;11.974;2024-03-02T04:02:03;95743.72;;;11.78;54.39
61324;BME280;47203;48.428;11.974;2024-03-02T04:04:07;95736.13;;;11.76;54.28
61324;BME280;47203;48.428;11.974;2024-03-02T04:06:10;95742.00;;;11.73;54.42
61324;BME280;47203;48.428;11.974;2024-03-02T04:08:12;95744.41;;;11.69;54.31
61324;BME280;47203;48.428;11.974;2024-03-02T04:10:16;95736.81;;;11.68;54.44
61324;BME280;47203;48.428;11.974;2024-03-02T04:12:20;95742.06;;;11.68;54.41
61324;BME280;47203;48.428;11.974;2024-03-02T04:14:24;95734.47;;;11.66;54.34
61324;BME280;47203;48.428;11.974;2024-03-02T04:16:27;95739.75;;;11.66;54.51
61324;BME280;47203;48.428;11.974;2024-03-02T04:18:32;95738.19;;;11.65;54.61
61324;BME280;47203;48.428;11.974;2024-03-02T04:20:37;95741.31;;;11.67;54.51
61324;BME280;47203;48.428;11.974;2024-03-02T04:22:40;95740.25;;;11.68;54.42
61324;BME280;47203;48.428;11.974;2024-03-02T04:24:42;95745.22;;;11.70;54.42
61324;BME280;47203;48.428;11.974;2024-03-02T04:26:46;95748.63;;;11.70;54.42
61324;BME280;47203;48.428;11.974;2024-03-02T04:28:49;95742.56;;;11.70;54.29
61324;BME280;47203;48.428;11.974;2024-03-02T04:30:52;95745.22;;;11.70;54.35
61324;BME280;47203;48.428;11.974;2024-03-02T04:32:56;95745.22;;;11.70;54.44
61324;BME280;47203;48.428;11.974;2024-03-02T04:35:01;95738.38;;;11.69;54.33
61324;BME280;47203;48.428;11.974;2024-03-02T04:37:04;95737.59;;;11.68;54.47
61324;BME280;47203;48.428;11.974;2024-03-02T04:39:09;95736.03;;;11.67;54.13
61324;BME280;47203;48.428;11.974;2024-03-02T04:41:11;95745.81;;;11.67;54.41
61324;BME280;47203;48.428;11.974;2024-03-02T04:43:15;95742.38;;;11.66;54.40
61324;BME280;47203;48.428;11.974;2024-03-02T04:45:18;95743.94;;;11.67;54.40
61324;BME280;47203;48.428;11.974;2024-03-02T04:47:22;95742.66;;;11.65;54.30
61324;BME280;47203;48.428;11.974;2024-03-02T04:49:25;95743.16;;;11.67;54.41
61324;BME280;47203;48.428;11.974;2024-03-02T04:51:29;95743.94;;;11.67;54.69
61324;BME280;47203;48.428;11.974;2024-03-02T04:53:32;95750.50;;;11.70;54.41
61324;BME280;47203;48.428;11.974;2024-03-02T04:55:36;95750.19;;;11.72;54.39
61324;BME280;47203;48.428;11.974;2024-03-02T04:58:06;95752.81;;;11.72;54.24
61324;BME280;47203;48.428;11.974;2024-03-02T05:00:10;95749.41;;;11.71;54.37
61324;BME280;47203;48.428;11.974;2024-03-02T05:02:14;95756.75;;;11.74;54.35
61324;BME280;47203;48.428;11.974;2024-03-02T05:04:18;95756.44;;;11.76;54.29
61324;BME280;47203;48.428;11.974;2024-03-02T05:06:20;95757.22;;;11.76;54.57
61324;BME280;47203;48.428;11.974;2024-03-02T05:08:25;95761.72;;;11.76;54.27
61324;BME280;47203;48.428;11.974;2024-03-02T05:10:28;95765.13;;;11.76;54.26
61324;BME280;47203;48.428;11.974;2024-03-02T05:12:31;95770.09;;;11.78;54.39
61324;BME280;47203;48.428;11.974;2024-03-02T05:14:58;95774.91;;;11.76;54.18
61324;BME280;47203;48.428;11.974;2024-03-02T05:17:02;95772.25;;;11.76;54.29
61324;BME280;47203;48.428;11.974;2024-03-02T05:19:05;95771.97;;;11.77;54.24
61324;BME280;47203;48.428;11.974;2024-03-02T05:21:09;95771.16;;;11.77;54.07
61324;BME280;47203;48.428;11.974;2024-03-02T05:23:13;95780.94;;;11.76;54.38
61324;BME280;47203;48.428;11.974;2024-03-02T05:25:18;95773.31;;;11.75;54.33
61324;BME280;47203;48.428;11.974;2024-03-02T05:27:20;95780.94;;;11.76;54.19
61324;BME280;47203;48.428;11.974;2024-03-02T05:29:25;95772.56;;;11.74;54.23
61324;BME280;47203;48.428;11.974;2024-03-02T05:31:28;95774.09;;;11.75;54.19
61324;BME280;47203;48.428;11.974;2024-03-02T05:33:31;95773.31;;;11.75;54.24
61324;BME280;47203;48.428;11.974;2024-03-02T05:35:35;95778.59;;;11.75;54.42
61324;BME280;47203;48.428;11.974;2024-03-02T05:37:37;95780.47;;;11.74;54.27
61324;BME280;47203;48.428;11.974;2024-03-02T05:39:41;95783.88;;;11.75;54.29
61324;BME280;47203;48.428;11.974;2024-03-02T05:41:46;95771.75;;;11.74;54.36
61324;BME280;47203;48.428;11.974;2024-03-02T05:43:50;95778.59;;;11.75;54.31
61324;BME280;47203;48.428;11.974;2024-03-02T05:45:53;95788.06;;;11.76;54.23
61324;BME280;47203;48.428;11.974;2024-03-02T05:47:56;95783.56;;;11.76;54.26
61324;BME280;47203;48.428;11.974;2024-03-02T05:50:00;95786.50;;;11.75;54.19
61324;BME280;47203;48.428;11.974;2024-03-02T05:52:06;95791.00;;;11.74;54.31
61324;BME280;47203;48.428;11.974;2024-03-02T05:54:10;95785.72;;;11.74;54.24
61324;BME280;47203;48.428;11.974;2024-03-02T05:56:13;95787.88;;;11.72;54.23
61324;BME280;47203;48.428;11.974;2024-03-02T05:58:17;95796.06;;;11.70;54.27
61324;BME280;47203;48.428;11.974;2024-03-02T06:00:29;95798.41;;;11.72;54.29
61324;BME280;47203;48.428;11.974;2024-03-02T06:02:33;95801.03;;;11.72;54.11
61324;BME280;47203;48.428;11.974;2024-03-02T06:04:41;95799.22;;;11.73;54.23
61324;BME280;47203;48.428;11.974;2024-03-02T06:06:45;95801.84;;;11.73;54.21
61324;BME280;47203;48.428;11.974;2024-03-02T06:08:48;95801.84;;;11.73;54.18
61324;BME280;47203;48.428;11.974;2024-03-02T06:10:50;95804.47;;;11.73;54.33
61324;BME280;47203;48.428;11.974;2024-03-02T06:12:54;95804.97;;;11.75;54.31
61324;BME280;47203;48.428;11.974;2024-03-02T06:14:59;95799.97;;;11.73;54.31
61324;BME280;47203;48.428;11.974;2024-03-02T06:17:02;95812.09;;;11.74;54.30
61324;BME280;47203;48.428;11.974;2024-03-02T06:19:07;95802.31;;;11.75;54.29
61324;BME280;47203;48.428;11.974;2024-03-02T06:21:10;95799.69;;;11.75;54.22
61324;BME280;47203;48.428;11.974;2024-03-02T06:23:13;95797.81;;;11.75;54.27
61324;BME280;47203;48.428;11.974;2024-03-02T06:25:17;95799.69;;;11.75;54.27
61324;BME280;47203;48.428;11.974;2024-03-02T06:27:19;95808.38;;;11.75;54.15
61324;BME280;47203;48.428;11.974;2024-03-02T06:29:22;95803.09;;;11.75;54.25
61324;BME280;47203;48.428;11.974;2024-03-02T06:31:26;95805.25;;;11.73;54.28
61324;BME280;47203;48.428;11.974;2024-03-02T06:33:29;95807.59;;;11.75;54.30
61324;BME280;47203;48.428;11.974;2024-03-02T06:35:33;95810.22;;;11.75;54.30
61324;BME280;47203;48.428;11.974;2024-03-02T06:37:38;95807.59;;;11.75;54.26
61324;BME280;47203;48.428;11.974;2024-03-02T06:39:41;95805.72;;;11.75;54.31
61324;BME280;47203;48.428;11.974;2024-03-02T06:41:45;95798.63;;;11.76;54.40
61324;BME280;47203;48.428;11.974;2024-03-02T06:43:50;95797.53;;;11.77;54.36
61324;BME280;47203;48.428;11.974;2024-03-02T06:46:01;95802.03;;;11.76;54.43
61324;BME280;47203;48.428;11.974;2024-03-02T06:48:07;95798.63;;;11.76;54.28
61324;BME280;47203;48.428;11.974;2024-03-02T06:50:10;95796.47;;;11.78;54.27
61324;BME280;47203;48.428;11.974;2024-03-02T06:52:12;95803.59;;;11.77;54.28
61324;BME280;47203;48.428;11.974;2024-03-02T06:54:16;95799.88;;;11.78;54.25
61324;BME280;47203;48.428;11.974;2024-03-02T06:56:19;95790.88;;;11.79;54.55
61324;BME280;47203;48.428;11.974;2024-03-02T06:58:23;95801.66;;;11.83;54.25
61324;BME280;47203;48.428;11.974;2024-03-02T07:00:25;95799.00;;;11.83;54.27
61324;BME280;47203;48.428;11.974;2024-03-02T07:02:28;95797.91;;;11.84;54.29
61324;BME280;47203;48.428;11.974;2024-03-02T07:04:32;95798.72;;;11.84;54.25
61324;BME280;47203;48.428;11.974;2024-03-02T07:06:35;95801.81;;;11.86;54.12
61324;BME280;47203;48.428;11.974;2024-03-02T07:08:40;95798.91;;;11.88;54.23
61324;BME280;47203;48.428;11.974;2024-03-02T07:10:43;95798.59;;;11.90;54.15
61324;BME280;47203;48.428;11.974;2024-03-02T07:12:47;95797.06;;;11.88;54.08
61324;BME280;47203;48.428;11.974;2024-03-02T07:14:49;95797.31;;;11.87;54.10
61324;BME280;47203;48.428;11.974;2024-03-02T07:17:20;95804.47;;;11.86;54.17
61324;BME280;47203;48.428;11.974;2024-03-02T07:19:23;95801.06;;;11.86;54.24
61324;BME280;47203;48.428;11.974;2024-03-02T07:21:29;95804.75;;;11.85;54.20
61324;BME280;47203;48.428;11.974;2024-03-02T07:23:32;95804.16;;;11.88;54.17
61324;BME280;47203;48.428;11.974;2024-03-02T07:25:35;95806.50;;;11.90;54.30
61324;BME280;47203;48.428;11.974;2024-03-02T07:27:41;95810.41;;;11.92;54.23
61324;BME280;47203;48.428;11.974;2024-03-02T07:29:46;95817.75;;;11.95;54.20
61324;BME280;47203;48.428;11.974;2024-03-02T07:31:49;95819.03;;;11.98;54.35
61324;BME280;47203;48.428;11.974;2024-03-02T07:33:54;95830.56;;;12.02;54.29
61324;BME280;47203;48.428;11.974;2024-03-02T07:35:58;95834.94;;;12.07;54.26
61324;BME280;47203;48.428;11.974;2024-03-02T07:38:07;95827.44;;;12.14;54.34
61324;BME280;47203;48.428;11.974;2024-03-02T07:40:12;95836.03;;;12.19;54.32
61324;BME280;47203;48.428;11.974;2024-03-02T07:42:16;95837.47;;;12.26;53.96
61324;BME280;47203;48.428;11.974;2024-03-02T07:44:20;95835.00;;;12.29;54.00
61324;BME280;47203;48.428;11.974;2024-03-02T07:46:23;95836.47;;;12.35;53.81
61324;BME280;47203;48.428;11.974;2024-03-02T07:48:26;95841.16;;;12.38;54.05
61324;BME280;47203;48.428;11.974;2024-03-02T07:50:29;95848.19;;;12.43;53.83
61324;BME280;47203;48.428;11.974;2024-03-02T07:52:33;95853.34;;;12.48;53.86
61324;BME280;47203;48.428;11.974;2024-03-02T07:54:38;95850.13;;;12.51;53.90
61324;BME280;47203;48.428;11.974;2024-03-02T07:56:41;95847.66;;;12.55;53.86
61324;BME280;47203;48.428;11.974;2024-03-02T07:58:45;95855.47;;;12.60;53.79
61324;BME280;47203;48.428;11.974;2024-03-02T08:00:50;95852.25;;;12.63;53.73
61324;BME280;47203;48.428;11.974;2024-03-02T08:02:56;95852.72;;;12.65;53.74
61324;BME280;47203;48.428;11.974;2024-03-02T08:05:00;95846.06;;;12.68;53.61
61324;BME280;47203;48.428;11.974;2024-03-02T08:07:04;95860.53;;;12.70;53.45
61324;BME280;47203;48.428;11.974;2024-03-02T08:09:09;95855.25;;;12.70;53.55
61324;BME280;47203;48.428;11.974;2024-03-02T08:11:13;95859.44;;;12.71;53.36
61324;BME280;47203;48.428;11.974;2024-03-02T08:13:17;95869.69;;;12.73;53.46
61324;BME280;47203;48.428;11.974;2024-03-02T08:15:20;95869.22;;;12.71;53.25
61324;BME280;47203;48.428;11.974;2024-03-02T08:17:23;95866.59;;;12.71;53.41
61324;BME280;47203;48.428;11.974;2024-03-02T08:19:27;95865.81;;;12.70;53.30
61324;BME280;47203;48.428;11.974;2024-03-02T08:21:30;95868.16;;;12.72;53.26
61324;BME280;47203;48.428;11.974;2024-03-02T08:23:34;95861.31;;;12.71;53.23
61324;BME280;47203;48.428;11.974;2024-03-02T08:25:38;95867.34;;;12.71;53.26
61324;BME280;47203;48.428;11.974;2024-03-02T08:27:43;95862.88;;;12.72;53.36
61324;BME280;47203;48.428;11.974;2024-03-02T08:29:46;95859.34;;;12.77;53.44
61324;BME280;47203;48.428;11.974;2024-03-02T08:31:49;95864.19;;;12.83;53.53
61324;BME280;47203;48.428;11.974;2024-03-02T08:33:54;95864.25;;;12.92;53.46
61324;BME280;47203;48.428;11.974;2024-03-02T08:35:59;95870.88;;;13.03;53.38
61324;BME280;47203;48.428;11.974;2024-03-02T08:38:03;95872.06;;;13.20;53.50
61324;BME280;47203;48.428;11.974;2024-03-02T08:40:11;95867.09;;;13.41;53.50
61324;BME280;47203;48.428;11.974;2024-03-02T08:42:24;95863.78;;;13.67;53.51
61324;BME280;47203;48.428;11.974;2024-03-02T08:44:53;95872.78;;;13.97;53.29
61324;BME280;47203;48.428;11.974;2024-03-02T08:47:06;95870.34;;;14.18;52.94
61324;BME280;47203;48.428;11.974;2024-03-02T08:49:18;95873.34;;;14.34;52.57
61324;BME280;47203;48.428;11.974;2024-03-02T08:51:26;95876.16;;;14.46;52.46
61324;BME280;47203;48.428;11.974;2024-03-02T08:53:47;95878.41;;;14.62;52.54
61324;BME280;47203;48.428;11.974;2024-03-02T08:55:53;95879.03;;;14.76;52.25
61324;BME280;47203;48.428;11.974;2024-03-02T08:58:04;95876.53;;;14.80;51.79
61324;BME280;47203;48.428;11.974;2024-03-02T09:00:27;95873.88;;;14.71;51.68
61324;BME280;47203;48.428;11.974;2024-03-02T09:02:47;95877.00;;;14.64;51.76
61324;BME280;47203;48.428;11.974;2024-03-02T09:05:00;95884.63;;;14.57;51.78
61324;BME280;47203;48.428;11.974;2024-03-02T09:07:09;95876.34;;;14.50;51.67
61324;BME280;47203;48.428;11.974;2024-03-02T09:09:18;95870.56;;;14.39;51.78
61324;BME280;47203;48.428;11.974;2024-03-02T09:11:35;95876.78;;;14.35;51.73
61324;BME280;47203;48.428;11.974;2024-03-02T09:13:41;95879.28;;;14.31;52.12
61324;BME280;47203;48.428;11.974;2024-03-02T09:15:51;95881.91;;;14.31;52.11
61324;BME280;47203;48.428;11.974;2024-03-02T09:18:06;95875.22;;;14.34;52.35
61324;BME280;47203;48.428;11.974;2024-03-02T09:20:17;95879.28;;;14.40;52.33
61324;BME280;47203;48.428;11.974;2024-03-02T09:22:30;95876.47;;;14.45;52.73
61324;BME280;47203;48.428;11.974;2024-03-02T09:24:37;95876.19;;;14.55;52.53
61324;BME280;47203;48.428;11.974;2024-03-02T09:26:42;95869.84;;;14.65;52.51
61324;BME280;47203;48.428;11.974;2024-03-02T09:28:47;95869.22;;;14.77;52.41
61324;BME280;47203;48.428;11.974;2024-03-02T09:30:57;95873.88;;;14.89;52.40
61324;BME280;47203;48.428;11.974;2024-03-02T09:33:11;95873.41;;;15.13;52.53
61324;BME280;47203;48.428;11.974;2024-03-02T09:35:28;95869.13;;;15.47;52.37
61324;BME280;47203;48.428;11.974;2024-03-02T09:37:31;95860.78;;;15.83;52.03
61324;BME280;47203;48.428;11.974;2024-03-02T09:39:34;95860.72;;;16.22;51.33
61324;BME280;47203;48.428;11.974;2024-03-02T09:41:41;95865.31;;;16.64;50.91
61324;BME280;47203;48.428;11.974;2024-03-02T09:43:52;95865.53;;;17.01;50.06
61324;BME280;47203;48.428;11.974;2024-03-02T09:46:12;95866.63;;;17.33;49.31
61324;BME280;47203;48.428;11.974;2024-03-02T09:48:22;95862.50;;;17.57;48.91
61324;BME280;47203;48.428;11.974;2024-03-02T09:50:30;95853.03;;;17.59;48.60
61324;BME280;47203;48.428;11.974;2024-03-02T09:52:38;95866.91;;;17.53;48.12
61324;BME280;47203;48.428;11.974;2024-03-02T09:54:47;95861.31;;;17.33;48.35
61324;BME280;47203;48.428;11.974;2024-03-02T09:56:51;95865.25;;;17.15;48.75
61324;BME280;47203;48.428;11.974;2024-03-02T09:58:54;95863.19;;;16.99;48.87
61324;BME280;47203;48.428;11.974;2024-03-02T10:00:58;95866.28;;;16.80;48.70
61324;BME280;47203;48.428;11.974;2024-03-02T10:03:03;95870.69;;;16.55;48.88
61324;BME280;47203;48.428;11.974;2024-03-02T10:05:07;95857.84;;;16.36;49.05
61324;BME280;47203;48.428;11.974;2024-03-02T10:07:15;95865.59;;;16.20;49.34
61324;BME280;47203;48.428;11.974;2024-03-02T10:09:27;95864.59;;;16.03;49.35
61324;BME280;47203;48.428;11.974;2024-03-02T10:11:33;95867.00;;;15.87;49.08
61324;BME280;47203;48.428;11.974;2024-03-02T10:13:38;95853.63;;;15.66;49.31
61324;BME280;47203;48.428;11.974;2024-03-02T10:15:42;95866.31;;;15.52;49.42
61324;BME280;47203;48.428;11.974;2024-03-02T10:17:45;95858.88;;;15.36;49.29
61324;BME280;47203;48.428;11.974;2024-03-02T10:19:50;95852.81;;;15.18;49.46
61324;BME280;47203;48.428;11.974;2024-03-02T10:21:54;95851.91;;;15.06;49.57
61324;BME280;47203;48.428;11.974;2024-03-02T10:24:07;95854.72;;;14.83;49.19
61324;BME280;47203;48.428;11.974;2024-03-02T10:26:17;95853.78;;;14.61;49.50
61324;BME280;47203;48.428;11.974;2024-03-02T10:28:21;95860.91;;;14.52;49.98
61324;BME280;47203;48.428;11.974;2024-03-02T10:30:26;95853.28;;;14.42;49.92
61324;BME280;47203;48.428;11.974;2024-03-02T10:32:32;95853.25;;;14.33;50.05
61324;BME280;47203;48.428;11.974;2024-03-02T10:34:40;95850.91;;;14.31;50.05
61324;BME280;47203;48.428;11.974;2024-03-02T10:36:45;95851.69;;;14.32;50.10
61324;BME280;47203;48.428;11.974;2024-03-02T10:38:49;95839.25;;;14.32;50.17
61324;BME280;47203;48.428;11.974;2024-03-02T10:40:58;95837.81;;;14.26;49.98
61324;BME280;47203;48.428;11.974;2024-03-02T10:43:02;95837.97;;;14.21;50.19
61324;BME280;47203;48.428;11.974;2024-03-02T10:45:10;95836.41;;;14.20;50.34
61324;BME280;47203;48.428;11.974;2024-03-02T10:47:15;95835.47;;;14.25;50.24
61324;BME280;47203;48.428;11.974;2024-03-02T10:49:22;95835.03;;;14.23;50.42
61324;BME280;47203;48.428;11.974;2024-03-02T10:51:26;95828.97;;;14.22;50.26
61324;BME280;47203;48.428;11.974;2024-03-02T10:53:34;95829.28;;;14.21;50.66
61324;BME280;47203;48.428;11.974;2024-03-02T10:55:38;95827.22;;;14.26;50.59